Pilot information for Kerch Airport

[ general | frequencies | runways | weather | notam | navaids | links ]

Caution: This page displays community-maintained data: information may be missing, incorrect, or out of date. Please confirm with an official source before making travel plans.

General information for Kerch Airport

Airport codes: KHC UKFK
Type: local airport(light traffic)
Scheduled airline service: no
Serves: Kerch, Crimea, Ukraine
Latitude: 45.372501 | 45 22.350082 N | N45 22 21
Longitude: 36.401402 | 36 24.084091 E | E036 24 05
Field elevation: 171 ft/52 m MSL

Radio communication frequencies for Kerch Airport

No communications frequencies known for Kerch Airport.

Members can add and update frequencies.

Runways at Kerch Airport

07/25
5,420 x 115 ft (1,652 x 35 m) — paved — not lighted

Members can add and update runway information.

Aviation weather for Kerch Airport

Current conditions (METAR) for Kerch Airport

Retrieved 2012/04/05 14:00:

UKFK 051400Z 14004MPS 9999 SCT033 OVC100 11/05 Q1016 NOSIG

Forecast (TAF) for Kerch Airport

Closest forecast is Anapa Airport, 45.8 nm (84.8 km) ESE. Retrieved 2014/08/22 09:21:

TAF TAF URKA 220801Z 2209/2309 03006G11MPS 9999 SCT020CB T31/2210Z

Notices to Airmen (NOTAM) for Kerch Airport

Please confirm all NOTAMs at the original source! These are for information only, and may be wrong, out of date, or incomplete.

We have no current NOTAMs for Kerch Airport. Please check with an official source to confirm.